Terminal Aerodrome Forecast
Issued by NWS Caribou, ME

Home | Current Version | Previous Version | Text Only | Print | Product List | Glossary On
Versions: 1 2 3 4 5 6 7 8 9 10 11 12 13 14 15 16
293
FTUS41 KCAR 271120
TAFBGR
TAF
KBGR 271120Z 2712/2812 36009KT P6SM -DZ BKN015
     FM271400 01009KT P6SM OVC015
     FM271800 02007KT P6SM SCT025
     FM281000 VRB03KT 2SM BR BKN100=

USA.gov is the U.S. government's official web portal to all federal, state and local government web resources and services.